Aviation Digital Data Service (ADDS)

Output produced by METARs form (0439 UTC 26 June 2019)
found at http://www.aviationweather.gov/metar/data/
 
Forecast for: KIND (INDIANAPOLIS , IN, US)
Text: KIND 260239Z 2603/2706 21008KT P6SM FEW250
Forecast period: 0300 to 1800 UTC 26 June 2019
Forecast type: FROM: standard forecast or significant change
Winds: from the SSW (210 degrees) at 9 MPH (8 knots; 4.1 m/s)
Visibility: 6 or more miles 10+ km)
Ceiling: at least 12,000 feet AGL
Clouds: few clouds at 25000 feet AGL
Weather: no significant weather forecast for this period
Text: FM261800 23007KT P6SM SCT100
Forecast period: 1800 to 2200 UTC 26 June 2019
Forecast type: FROM: standard forecast or significant change
Winds: from the SW (230 degrees) at 8 MPH (7 knots; 3.6 m/s)
Visibility: 6 or more miles 10+ km)
Ceiling: at least 12,000 feet AGL
Clouds: scattered clouds at 10000 feet AGL
Weather: no significant weather forecast for this period
Text: FM262200 23007KT P6SM FEW180
Forecast period: 2200 UTC 26 June 2019 to 0600 UTC 27 June 2019
Forecast type: FROM: standard forecast or significant change
Winds: from the SW (230 degrees) at 8 MPH (7 knots; 3.6 m/s)
Visibility: 6 or more miles 10+ km)
Ceiling: at least 12,000 feet AGL
Clouds: few clouds at 18000 feet AGL
Weather: no significant weather forecast for this period